Time;durP1;ratioP1;P1;durP2;ratioP2;P2;SDS_P1;SDS_P2;PMS_P1;PMS_P2;Temp;Humidity;BMP_temperature;BMP_pressure;BME280_temperature;BME280_humidity;BME280_pressure;Samples;Min_cycle;Max_cycle;Signal;HPM_P1;HPM_P2
2021/10/07 00:00:50;;;;;;;;;;;;;;;;;;5113810;28;19993;-69
2021/10/07 00:03:16;;;;;;;;;;;;;;;;;;5114096;28;19924;-69
2021/10/07 00:05:43;;;;;;;;;;;;;;;;;;5113833;28;20378;-70
2021/10/07 00:08:09;;;;;;;;;;;;;;;;;;5113645;28;19923;-70
2021/10/07 00:10:35;;;;;;;;;;;;;;;;;;5114092;28;19932;-70
2021/10/07 00:13:02;;;;;;;;;;;;;;;;;;5113569;28;20377;-70
2021/10/07 00:15:28;;;;;;;;;;;;;;;;;;5113650;28;19934;-70
2021/10/07 00:17:55;;;;;;;;;;;;;;;;;;5113810;28;19924;-70
2021/10/07 00:20:21;;;;;;;;;;;;;;;;;;5113762;28;19967;-70
2021/10/07 00:22:48;;;;;;;;;;;;;;;;;;5113763;28;19929;-70
2021/10/07 00:25:14;;;;;;;;;;;;;;;;;;5113305;28;19934;-70
2021/10/07 00:27:40;;;;;;;;;;;;;;;;;;5113868;28;19930;-70
2021/10/07 00:30:11;;;;;;;;;;;;;;;;;;5113030;28;20401;-71
2021/10/07 00:32:42;;;;;;;;;;;;;;;;;;5113447;28;19924;-71
2021/10/07 00:35:22;;;;;;;;;;;;;;;;;;5113621;28;19928;-71
2021/10/07 00:40:33;;;;;;;;;;;;;;;;;;5113373;28;19923;-70
2021/10/07 00:42:59;;;;;;;;;;;;;;;;;;5113367;28;19924;-70
2021/10/07 00:45:25;;;;;;;;;;;;;;;;;;5113243;28;19930;-71
2021/10/07 00:47:52;;;;;;;;;;;;;;;;;;5113590;28;19923;-71
2021/10/07 00:50:18;;;;;;;;;;;;;;;;;;5112836;28;19928;-71
2021/10/07 00:52:44;;;;;;;;;;;;;;;;;;5112853;28;19931;-70
2021/10/07 00:55:13;;;;;;;;;;;;;;;;;;5112736;28;19924;-71
2021/10/07 00:57:40;;;;;;;;;;;;;;;;;;5113280;28;20373;-70
2021/10/07 01:00:06;;;;;;;;;;;;;;;;;;5113047;28;19989;-71
2021/10/07 01:02:32;;;;;;;;;;;;;;;;;;5113151;28;19931;-71
2021/10/07 01:04:59;;;;;;;;;;;;;;;;;;5112910;28;19934;-71
2021/10/07 01:07:25;;;;;;;;;;;;;;;;;;5112801;28;20293;-71
2021/10/07 01:09:51;;;;;;;;;;;;;;;;;;5112945;28;19930;-71
2021/10/07 01:12:17;;;;;;;;;;;;;;;;;;5113142;28;19930;-71
2021/10/07 01:14:46;;;;;;;;;;;;;;;;;;5112970;28;20282;-71
2021/10/07 01:17:12;;;;;;;;;;;;;;;;;;5118452;28;20118;-71
2021/10/07 01:19:39;;;;;;;;;;;;;;;;;;5134378;28;19928;-69
2021/10/07 01:22:05;;;;;;;;;;;;;;;;;;5131230;28;20010;-69
2021/10/07 01:24:31;;;;;;;;;;;;;;;;;;5116897;28;19924;-70
2021/10/07 01:26:58;;;;;;;;;;;;;;;;;;5113175;28;19924;-70
2021/10/07 01:29:24;;;;;;;;;;;;;;;;;;5112804;28;20404;-70
2021/10/07 01:31:50;;;;;;;;;;;;;;;;;;5112878;28;20014;-70
2021/10/07 01:34:17;;;;;;;;;;;;;;;;;;5112591;28;20425;-70
2021/10/07 01:36:43;;;;;;;;;;;;;;;;;;5112647;28;19924;-71
2021/10/07 01:39:09;;;;;;;;;;;;;;;;;;5112604;28;19934;-69
2021/10/07 01:41:35;;;;;;;;;;;;;;;;;;5112515;28;20282;-69
2021/10/07 01:44:02;;;;;;;;;;;;;;;;;;5112443;28;19931;-69
2021/10/07 01:46:28;;;;;;;;;;;;;;;;;;5112912;28;19924;-70
2021/10/07 01:48:54;;;;;;;;;;;;;;;;;;5112594;28;20325;-70
2021/10/07 01:51:21;;;;;;;;;;;;;;;;;;5112429;28;19923;-70
2021/10/07 01:53:47;;;;;;;;;;;;;;;;;;5112856;28;19931;-70
2021/10/07 01:56:13;;;;;;;;;;;;;;;;;;5112130;28;19928;-70
2021/10/07 01:58:40;;;;;;;;;;;;;;;;;;5112763;28;19928;-70
2021/10/07 02:01:06;;;;;;;;;;;;;;;;;;5112269;28;19930;-71
2021/10/07 02:03:32;;;;;;;;;;;;;;;;;;5112444;28;20270;-69
2021/10/07 02:05:58;;;;;;;;;;;;;;;;;;5114630;28;19931;-70
2021/10/07 02:08:25;;;;;;;;;;;;;;;;;;5116438;28;19929;-71
2021/10/07 02:10:51;;;;;;;;;;;;;;;;;;5116058;28;19924;-71
2021/10/07 02:13:17;;;;;;;;;;;;;;;;;;5115834;28;19924;-70
2021/10/07 02:15:44;;;;;;;;;;;;;;;;;;5116336;28;19924;-70
2021/10/07 02:18:10;;;;;;;;;;;;;;;;;;5115714;28;20389;-71
2021/10/07 02:20:36;;;;;;;;;;;;;;;;;;5116173;28;19923;-71
2021/10/07 02:23:03;;;;;;;;;;;;;;;;;;5115941;28;19931;-71
2021/10/07 02:25:29;;;;;;;;;;;;;;;;;;5115825;28;20393;-70
2021/10/07 02:27:55;;;;;;;;;;;;;;;;;;5115560;28;19928;-71
2021/10/07 02:30:22;;;;;;;;;;;;;;;;;;5116064;28;19931;-70
2021/10/07 02:32:48;;;;;;;;;;;;;;;;;;5115677;28;19931;-70
2021/10/07 02:35:14;;;;;;;;;;;;;;;;;;5115401;28;19931;-70
2021/10/07 02:37:41;;;;;;;;;;;;;;;;;;5115879;28;19950;-70
2021/10/07 02:40:07;;;;;;;;;;;;;;;;;;5115407;28;19924;-70
2021/10/07 02:42:33;;;;;;;;;;;;;;;;;;5115938;28;19924;-70
2021/10/07 02:44:59;;;;;;;;;;;;;;;;;;5115551;28;20318;-70
2021/10/07 02:47:26;;;;;;;;;;;;;;;;;;5115557;28;19930;-71
2021/10/07 02:49:52;;;;;;;;;;;;;;;;;;5115631;28;19924;-70
2021/10/07 02:52:18;;;;;;;;;;;;;;;;;;5115451;28;20014;-70
2021/10/07 02:54:45;;;;;;;;;;;;;;;;;;5115180;28;20382;-70
2021/10/07 02:57:11;;;;;;;;;;;;;;;;;;5115071;28;19924;-71
2021/10/07 02:59:37;;;;;;;;;;;;;;;;;;5115642;28;19924;-70
2021/10/07 03:02:04;;;;;;;;;;;;;;;;;;5115113;28;20386;-71
2021/10/07 03:04:30;;;;;;;;;;;;;;;;;;5115406;28;19928;-70
2021/10/07 03:06:56;;;;;;;;;;;;;;;;;;5114856;28;20310;-70
2021/10/07 03:09:22;;;;;;;;;;;;;;;;;;5115202;28;19924;-70
2021/10/07 03:11:49;;;;;;;;;;;;;;;;;;5115149;28;19931;-70
2021/10/07 03:14:15;;;;;;;;;;;;;;;;;;5114739;28;20374;-70
2021/10/07 03:16:41;;;;;;;;;;;;;;;;;;5114289;28;19924;-70
2021/10/07 03:19:09;;;;;;;;;;;;;;;;;;5114906;28;19930;-70
2021/10/07 03:21:35;;;;;;;;;;;;;;;;;;5114863;28;19923;-70
2021/10/07 03:24:02;;;;;;;;;;;;;;;;;;5114568;28;20374;-70
2021/10/07 03:26:28;;;;;;;;;;;;;;;;;;5114844;28;19924;-70
2021/10/07 03:28:54;;;;;;;;;;;;;;;;;;5114806;28;19923;-70
2021/10/07 03:31:21;;;;;;;;;;;;;;;;;;5114762;28;19930;-70
2021/10/07 03:33:47;;;;;;;;;;;;;;;;;;5114463;28;19931;-70
2021/10/07 03:36:13;;;;;;;;;;;;;;;;;;5114514;28;19928;-70
2021/10/07 03:38:40;;;;;;;;;;;;;;;;;;5114320;28;20444;-70
2021/10/07 03:41:06;;;;;;;;;;;;;;;;;;5114296;28;19924;-70
2021/10/07 03:43:32;;;;;;;;;;;;;;;;;;5114625;28;19924;-70
2021/10/07 03:45:58;;;;;;;;;;;;;;;;;;5114136;28;19923;-70
2021/10/07 03:48:25;;;;;;;;;;;;;;;;;;5114481;28;19930;-70
2021/10/07 03:50:51;;;;;;;;;;;;;;;;;;5114096;28;19924;-70
2021/10/07 03:53:17;;;;;;;;;;;;;;;;;;5114187;28;19924;-70
2021/10/07 03:55:44;;;;;;;;;;;;;;;;;;5114155;28;19932;-70
2021/10/07 03:58:10;;;;;;;;;;;;;;;;;;5113721;28;19927;-70
2021/10/07 04:00:36;;;;;;;;;;;;;;;;;;5114208;28;19924;-70
2021/10/07 04:03:02;;;;;;;;;;;;;;;;;;5113749;28;20297;-70
2021/10/07 04:05:29;;;;;;;;;;;;;;;;;;5113911;28;19930;-70
2021/10/07 04:07:55;;;;;;;;;;;;;;;;;;5113862;28;19923;-70
2021/10/07 04:10:21;;;;;;;;;;;;;;;;;;5113895;28;19923;-70
2021/10/07 04:12:48;;;;;;;;;;;;;;;;;;5114186;28;19924;-70
2021/10/07 04:15:14;;;;;;;;;;;;;;;;;;5113695;28;19934;-70
2021/10/07 04:17:40;;;;;;;;;;;;;;;;;;5113629;28;19928;-70
2021/10/07 04:20:06;;;;;;;;;;;;;;;;;;5113655;28;19931;-70
2021/10/07 04:22:33;;;;;;;;;;;;;;;;;;5113616;28;19924;-70
2021/10/07 04:24:59;;;;;;;;;;;;;;;;;;5113587;28;19924;-70
2021/10/07 04:27:25;;;;;;;;;;;;;;;;;;5113460;28;19923;-70
2021/10/07 04:29:52;;;;;;;;;;;;;;;;;;5113737;28;19924;-70
2021/10/07 04:32:18;;;;;;;;;;;;;;;;;;5113353;28;19924;-70
2021/10/07 04:34:46;;;;;;;;;;;;;;;;;;5113690;28;19924;-70
2021/10/07 04:37:13;;;;;;;;;;;;;;;;;;5113017;28;19924;-70
2021/10/07 04:39:39;;;;;;;;;;;;;;;;;;5113537;28;19935;-70
2021/10/07 04:42:05;;;;;;;;;;;;;;;;;;5112990;28;19923;-70
2021/10/07 04:44:32;;;;;;;;;;;;;;;;;;5113682;28;19931;-70
2021/10/07 04:46:58;;;;;;;;;;;;;;;;;;5113159;28;19931;-69
2021/10/07 04:49:24;;;;;;;;;;;;;;;;;;5113233;28;19924;-70
2021/10/07 04:51:50;;;;;;;;;;;;;;;;;;5113462;28;19928;-70
2021/10/07 04:54:17;;;;;;;;;;;;;;;;;;5113051;28;19924;-70
2021/10/07 04:56:43;;;;;;;;;;;;;;;;;;5112871;28;19923;-71
2021/10/07 04:59:09;;;;;;;;;;;;;;;;;;5113088;28;19924;-70
2021/10/07 05:01:36;;;;;;;;;;;;;;;;;;5112834;28;20298;-71
2021/10/07 05:04:03;;;;;;;;;;;;;;;;;;5112796;28;19924;-70
2021/10/07 05:06:29;;;;;;;;;;;;;;;;;;5113184;28;19924;-70
2021/10/07 05:08:56;;;;;;;;;;;;;;;;;;5113013;28;19924;-71
2021/10/07 05:11:22;;;;;;;;;;;;;;;;;;5112899;28;19923;-72
2021/10/07 05:13:48;;;;;;;;;;;;;;;;;;5112849;28;19930;-71
2021/10/07 05:16:15;;;;;;;;;;;;;;;;;;5112859;28;19924;-72
2021/10/07 05:18:41;;;;;;;;;;;;;;;;;;5113188;28;20305;-72
2021/10/07 05:21:07;;;;;;;;;;;;;;;;;;5112479;28;19924;-73
2021/10/07 05:23:34;;;;;;;;;;;;;;;;;;5112743;28;19931;-73
2021/10/07 05:26:00;;;;;;;;;;;;;;;;;;5112887;28;19924;-71
2021/10/07 05:28:26;;;;;;;;;;;;;;;;;;5113086;28;19923;-71
2021/10/07 05:30:53;;;;;;;;;;;;;;;;;;5113096;28;19923;-71
2021/10/07 05:33:21;;;;;;;;;;;;;;;;;;5122506;28;19912;-71
2021/10/07 05:35:48;;;;;;;;;;;;;;;;;;5134990;28;19951;-71
2021/10/07 05:38:14;;;;;;;;;;;;;;;;;;5136772;28;19923;-72
2021/10/07 05:40:40;;;;;;;;;;;;;;;;;;5116720;28;19924;-72
2021/10/07 05:43:07;;;;;;;;;;;;;;;;;;5116709;28;20271;-72
2021/10/07 05:45:33;;;;;;;;;;;;;;;;;;5116939;28;19924;-72
2021/10/07 05:47:59;;;;;;;;;;;;;;;;;;5116724;28;19924;-72
2021/10/07 05:50:25;;;;;;;;;;;;;;;;;;5116528;28;20289;-72
2021/10/07 05:52:52;;;;;;;;;;;;;;;;;;5116424;28;19934;-72
2021/10/07 05:55:18;;;;;;;;;;;;;;;;;;5116671;28;19931;-72
2021/10/07 05:57:44;;;;;;;;;;;;;;;;;;5116734;28;20325;-72
2021/10/07 06:00:11;;;;;;;;;;;;;;;;;;5116033;28;19935;-72
2021/10/07 06:02:37;;;;;;;;;;;;;;;;;;5116722;28;19923;-72
2021/10/07 06:05:03;;;;;;;;;;;;;;;;;;5115891;28;19924;-72
2021/10/07 06:07:29;;;;;;;;;;;;;;;;;;5116625;28;19923;-72
2021/10/07 06:09:56;;;;;;;;;;;;;;;;;;5116248;28;19923;-72
2021/10/07 06:12:22;;;;;;;;;;;;;;;;;;5116075;28;19935;-72
2021/10/07 06:14:48;;;;;;;;;;;;;;;;;;5116296;28;19924;-72
2021/10/07 06:17:15;;;;;;;;;;;;;;;;;;5115777;28;20310;-73
2021/10/07 06:19:43;;;;;;;;;;;;;;;;;;5115983;28;19930;-73
2021/10/07 06:22:09;;;;;;;;;;;;;;;;;;5115931;28;19929;-73
2021/10/07 06:24:36;;;;;;;;;;;;;;;;;;5115830;28;19924;-73
2021/10/07 06:27:02;;;;;;;;;;;;;;;;;;5115684;28;19934;-72
2021/10/07 06:29:28;;;;;;;;;;;;;;;;;;5116247;28;19931;-72
2021/10/07 06:31:55;;;;;;;;;;;;;;;;;;5115561;28;20390;-73
2021/10/07 06:34:21;;;;;;;;;;;;;;;;;;5115567;28;19924;-72
2021/10/07 06:36:47;;;;;;;;;;;;;;;;;;5116021;28;19930;-73
2021/10/07 06:39:14;;;;;;;;;;;;;;;;;;5115627;28;20374;-73
2021/10/07 06:41:40;;;;;;;;;;;;;;;;;;5115868;28;19931;-73
2021/10/07 06:44:06;;;;;;;;;;;;;;;;;;5115595;28;19931;-73
2021/10/07 06:46:32;;;;;;;;;;;;;;;;;;5115741;28;20294;-73
2021/10/07 06:48:59;;;;;;;;;;;;;;;;;;5115094;28;19923;-72
2021/10/07 06:51:25;;;;;;;;;;;;;;;;;;5114863;28;19931;-72
2021/10/07 06:53:54;;;;;;;;;;;;;;;;;;5115387;28;19923;-72
2021/10/07 06:56:21;;;;;;;;;;;;;;;;;;5115125;28;19924;-72
2021/10/07 06:58:47;;;;;;;;;;;;;;;;;;5115256;28;19924;-72
2021/10/07 07:01:13;;;;;;;;;;;;;;;;;;5115184;28;19928;-72
2021/10/07 07:03:40;;;;;;;;;;;;;;;;;;5115312;28;20366;-72
2021/10/07 07:06:06;;;;;;;;;;;;;;;;;;5114969;28;19924;-72
2021/10/07 07:08:32;;;;;;;;;;;;;;;;;;5115328;28;19928;-72
2021/10/07 07:10:59;;;;;;;;;;;;;;;;;;5115086;28;20297;-72
2021/10/07 07:13:25;;;;;;;;;;;;;;;;;;5114973;28;19936;-72
2021/10/07 07:15:51;;;;;;;;;;;;;;;;;;5115481;28;19924;-72
2021/10/07 07:18:18;;;;;;;;;;;;;;;;;;5114705;28;20382;-72
2021/10/07 07:20:44;;;;;;;;;;;;;;;;;;5114949;28;19923;-72
2021/10/07 07:23:10;;;;;;;;;;;;;;;;;;5114765;28;19923;-72
2021/10/07 07:25:36;;;;;;;;;;;;;;;;;;5114732;28;20382;-72
2021/10/07 07:28:03;;;;;;;;;;;;;;;;;;5114495;28;19927;-72
2021/10/07 07:30:29;;;;;;;;;;;;;;;;;;5115043;28;19924;-72
2021/10/07 07:32:55;;;;;;;;;;;;;;;;;;5114439;28;19931;-71
2021/10/07 07:35:22;;;;;;;;;;;;;;;;;;5114973;28;19930;-72
2021/10/07 07:37:48;;;;;;;;;;;;;;;;;;5114359;28;20378;-72
2021/10/07 07:40:14;;;;;;;;;;;;;;;;;;5114353;28;19931;-72
2021/10/07 07:42:41;;;;;;;;;;;;;;;;;;5114404;28;19977;-72
2021/10/07 07:45:08;;;;;;;;;;;;;;;;;;5114446;28;19924;-72
2021/10/07 07:47:35;;;;;;;;;;;;;;;;;;5114198;28;19924;-72
2021/10/07 07:50:01;;;;;;;;;;;;;;;;;;5114171;28;19949;-72
2021/10/07 07:52:28;;;;;;;;;;;;;;;;;;5114560;28;19930;-72
2021/10/07 07:54:54;;;;;;;;;;;;;;;;;;5114099;28;19978;-73
2021/10/07 07:57:21;;;;;;;;;;;;;;;;;;5114187;28;19930;-73
2021/10/07 07:59:47;;;;;;;;;;;;;;;;;;5114408;28;19924;-73
2021/10/07 08:02:15;;;;;;;;;;;;;;;;;;5113109;28;20313;-73
2021/10/07 08:04:41;;;;;;;;;;;;;;;;;;5113546;28;20298;-73
2021/10/07 08:07:08;;;;;;;;;;;;;;;;;;5113754;28;19924;-72
2021/10/07 08:09:38;;;;;;;;;;;;;;;;;;5114225;28;19924;-73
2021/10/07 08:12:04;;;;;;;;;;;;;;;;;;5113789;28;19928;-72
2021/10/07 08:14:31;;;;;;;;;;;;;;;;;;5113831;28;20405;-73
2021/10/07 08:16:58;;;;;;;;;;;;;;;;;;5113599;28;19934;-72
2021/10/07 08:19:25;;;;;;;;;;;;;;;;;;5113654;28;20283;-72
2021/10/07 08:21:51;;;;;;;;;;;;;;;;;;5113868;28;20056;-72
2021/10/07 08:24:22;;;;;;;;;;;;;;;;;;5113639;28;20366;-72
2021/10/07 08:26:48;;;;;;;;;;;;;;;;;;5113840;28;20452;-72
2021/10/07 08:29:14;;;;;;;;;;;;;;;;;;5114035;28;19924;-72
2021/10/07 08:31:41;;;;;;;;;;;;;;;;;;5113800;28;19923;-73
2021/10/07 08:34:07;;;;;;;;;;;;;;;;;;5113065;28;20361;-73
2021/10/07 08:36:35;;;;;;;;;;;;;;;;;;5113492;28;19928;-73
2021/10/07 08:39:01;;;;;;;;;;;;;;;;;;5113510;28;20030;-72
2021/10/07 08:41:27;;;;;;;;;;;;;;;;;;5113212;28;20370;-72
2021/10/07 08:43:54;;;;;;;;;;;;;;;;;;5113381;28;19931;-72
2021/10/07 08:46:20;;;;;;;;;;;;;;;;;;5113617;28;20270;-72
2021/10/07 08:48:46;;;;;;;;;;;;;;;;;;5113339;28;19924;-71
2021/10/07 08:51:13;;;;;;;;;;;;;;;;;;5113316;28;19930;-71
2021/10/07 08:53:39;;;;;;;;;;;;;;;;;;5113123;28;20283;-71
2021/10/07 08:56:06;;;;;;;;;;;;;;;;;;5112811;28;19931;-72
2021/10/07 08:58:32;;;;;;;;;;;;;;;;;;5113001;28;19923;-71
2021/10/07 09:00:59;;;;;;;;;;;;;;;;;;5113029;28;19938;-72
2021/10/07 09:03:25;;;;;;;;;;;;;;;;;;5113364;28;19931;-72
2021/10/07 09:05:52;;;;;;;;;;;;;;;;;;5113022;28;19923;-72
2021/10/07 09:08:18;;;;;;;;;;;;;;;;;;5113044;28;19924;-72
2021/10/07 09:10:46;;;;;;;;;;;;;;;;;;5113107;28;20378;-72
2021/10/07 09:13:12;;;;;;;;;;;;;;;;;;5112755;28;20086;-72
2021/10/07 09:15:39;;;;;;;;;;;;;;;;;;5112490;28;19924;-72
2021/10/07 09:18:05;;;;;;;;;;;;;;;;;;5113163;28;19931;-72
2021/10/07 09:20:31;;;;;;;;;;;;;;;;;;5112938;28;19931;-72
2021/10/07 09:22:57;;;;;;;;;;;;;;;;;;5112942;28;19924;-72
2021/10/07 09:25:24;;;;;;;;;;;;;;;;;;5113161;28;20305;-72
2021/10/07 09:27:50;;;;;;;;;;;;;;;;;;5112933;28;19930;-72
2021/10/07 09:30:17;;;;;;;;;;;;;;;;;;5112486;28;19931;-72
2021/10/07 09:32:45;;;;;;;;;;;;;;;;;;5112874;28;20392;-73
2021/10/07 09:35:11;;;;;;;;;;;;;;;;;;5112774;28;19923;-72
2021/10/07 09:37:37;;;;;;;;;;;;;;;;;;5112719;28;19924;-72
2021/10/07 09:40:04;;;;;;;;;;;;;;;;;;5112804;28;19928;-72
2021/10/07 09:42:30;;;;;;;;;;;;;;;;;;5113438;28;19931;-73
2021/10/07 09:44:56;;;;;;;;;;;;;;;;;;5112859;28;19928;-72
2021/10/07 09:47:23;;;;;;;;;;;;;;;;;;5133514;28;19907;-73
2021/10/07 09:49:49;;;;;;;;;;;;;;;;;;5137971;28;19958;-72
2021/10/07 09:52:16;;;;;;;;;;;;;;;;;;5128050;28;19923;-72
2021/10/07 09:54:42;;;;;;;;;;;;;;;;;;5113425;28;19984;-72
2021/10/07 09:57:08;;;;;;;;;;;;;;;;;;5112709;28;19924;-73
2021/10/07 09:59:35;;;;;;;;;;;;;;;;;;5112973;28;19923;-73
2021/10/07 10:02:01;;;;;;;;;;;;;;;;;;5112352;28;19930;-72
2021/10/07 10:04:27;;;;;;;;;;;;;;;;;;5112976;28;19924;-72
2021/10/07 10:06:54;;;;;;;;;;;;;;;;;;5112052;28;20382;-72
2021/10/07 10:09:20;;;;;;;;;;;;;;;;;;5112506;28;19931;-72
2021/10/07 10:11:46;;;;;;;;;;;;;;;;;;5112709;28;19950;-72
2021/10/07 10:14:13;;;;;;;;;;;;;;;;;;5112372;28;19928;-72
2021/10/07 10:16:39;;;;;;;;;;;;;;;;;;5112213;28;19923;-73
2021/10/07 10:19:05;;;;;;;;;;;;;;;;;;5112059;28;19931;-72
2021/10/07 10:21:31;;;;;;;;;;;;;;;;;;5112486;28;19931;-73
2021/10/07 10:23:58;;;;;;;;;;;;;;;;;;5112040;28;20409;-72
2021/10/07 10:26:24;;;;;;;;;;;;;;;;;;5113755;27;19934;-72
2021/10/07 10:28:51;;;;;;;;;;;;;;;;;;5116173;28;19924;-72
2021/10/07 10:31:17;;;;;;;;;;;;;;;;;;5115469;28;20275;-72
2021/10/07 10:33:44;;;;;;;;;;;;;;;;;;5115817;28;19928;-72
2021/10/07 10:36:10;;;;;;;;;;;;;;;;;;5115470;28;19927;-72
2021/10/07 10:38:37;;;;;;;;;;;;;;;;;;5116014;28;19931;-74
2021/10/07 10:41:03;;;;;;;;;;;;;;;;;;5115266;28;20413;-73
2021/10/07 10:43:30;;;;;;;;;;;;;;;;;;5115578;28;19931;-72
2021/10/07 10:45:57;;;;;;;;;;;;;;;;;;5115621;28;19928;-73
2021/10/07 10:48:23;;;;;;;;;;;;;;;;;;5115867;28;19924;-72
2021/10/07 10:50:49;;;;;;;;;;;;;;;;;;5115348;28;19924;-72
2021/10/07 10:53:15;;;;;;;;;;;;;;;;;;5115452;28;19923;-72
2021/10/07 10:55:42;;;;;;;;;;;;;;;;;;5115332;28;19945;-72
2021/10/07 10:58:08;;;;;;;;;;;;;;;;;;5115083;28;20374;-72
2021/10/07 11:00:34;;;;;;;;;;;;;;;;;;5115545;28;19935;-72
2021/10/07 11:03:01;;;;;;;;;;;;;;;;;;5114824;28;19923;-72
2021/10/07 11:05:27;;;;;;;;;;;;;;;;;;5115337;28;19924;-72
2021/10/07 11:07:53;;;;;;;;;;;;;;;;;;5115123;28;20294;-73
2021/10/07 11:10:20;;;;;;;;;;;;;;;;;;5115088;28;19924;-72
2021/10/07 11:12:46;;;;;;;;;;;;;;;;;;5115653;28;19925;-73
2021/10/07 11:15:12;;;;;;;;;;;;;;;;;;5114799;28;20385;-72
2021/10/07 11:17:38;;;;;;;;;;;;;;;;;;5114846;28;19924;-73
2021/10/07 11:20:05;;;;;;;;;;;;;;;;;;5114956;28;19950;-72
2021/10/07 11:22:31;;;;;;;;;;;;;;;;;;5114867;28;19931;-72
2021/10/07 11:24:58;;;;;;;;;;;;;;;;;;5114585;28;19927;-72
2021/10/07 11:27:24;;;;;;;;;;;;;;;;;;5114957;28;19973;-73
2021/10/07 11:29:51;;;;;;;;;;;;;;;;;;5114900;28;19924;-72
2021/10/07 11:32:17;;;;;;;;;;;;;;;;;;5114639;28;19927;-72
2021/10/07 11:34:44;;;;;;;;;;;;;;;;;;5114802;28;19923;-72
2021/10/07 11:37:10;;;;;;;;;;;;;;;;;;5113881;28;19928;-72
2021/10/07 11:39:37;;;;;;;;;;;;;;;;;;5114774;28;20005;-72
2021/10/07 11:42:03;;;;;;;;;;;;;;;;;;5114117;28;20286;-72
2021/10/07 11:44:29;;;;;;;;;;;;;;;;;;5114547;28;19923;-72
2021/10/07 11:46:55;;;;;;;;;;;;;;;;;;5114658;28;19931;-72
2021/10/07 11:49:22;;;;;;;;;;;;;;;;;;5114323;28;20405;-72
2021/10/07 11:51:48;;;;;;;;;;;;;;;;;;5114239;28;19924;-72
2021/10/07 11:54:14;;;;;;;;;;;;;;;;;;5114604;28;19927;-72
2021/10/07 11:56:41;;;;;;;;;;;;;;;;;;5114080;28;20386;-72
2021/10/07 11:59:07;;;;;;;;;;;;;;;;;;5113982;28;19923;-72
2021/10/07 12:01:33;;;;;;;;;;;;;;;;;;5114343;28;19930;-72
2021/10/07 12:04:00;;;;;;;;;;;;;;;;;;5113646;28;20263;-72
2021/10/07 12:06:26;;;;;;;;;;;;;;;;;;5113979;28;19924;-72
2021/10/07 12:08:52;;;;;;;;;;;;;;;;;;5114181;28;19924;-72
2021/10/07 12:11:18;;;;;;;;;;;;;;;;;;5114319;28;20011;-72
2021/10/07 12:13:45;;;;;;;;;;;;;;;;;;5113732;28;20402;-72
2021/10/07 12:16:13;;;;;;;;;;;;;;;;;;5113868;28;19976;-72
2021/10/07 12:18:39;;;;;;;;;;;;;;;;;;5114025;28;19923;-72
2021/10/07 12:21:06;;;;;;;;;;;;;;;;;;5113545;28;19931;-72
2021/10/07 12:23:32;;;;;;;;;;;;;;;;;;5113826;28;19924;-72
2021/10/07 12:25:58;;;;;;;;;;;;;;;;;;5113646;28;19924;-72
2021/10/07 12:28:25;;;;;;;;;;;;;;;;;;5113561;28;19999;-72
2021/10/07 12:30:51;;;;;;;;;;;;;;;;;;5113831;28;19924;-72
2021/10/07 12:33:17;;;;;;;;;;;;;;;;;;5113489;28;20280;-72
2021/10/07 12:35:44;;;;;;;;;;;;;;;;;;5113629;28;19924;-72
2021/10/07 12:38:10;;;;;;;;;;;;;;;;;;5113233;28;20018;-72
2021/10/07 12:40:36;;;;;;;;;;;;;;;;;;5113511;28;19930;-72
2021/10/07 12:43:02;;;;;;;;;;;;;;;;;;5113019;28;20294;-73
2021/10/07 12:45:29;;;;;;;;;;;;;;;;;;5113300;28;19923;-72
2021/10/07 12:47:55;;;;;;;;;;;;;;;;;;5113216;28;19927;-73
2021/10/07 12:50:22;;;;;;;;;;;;;;;;;;5112603;28;19924;-73
2021/10/07 12:52:48;;;;;;;;;;;;;;;;;;5113491;28;19923;-73
2021/10/07 12:55:15;;;;;;;;;;;;;;;;;;5112668;28;20298;-73
2021/10/07 12:57:43;;;;;;;;;;;;;;;;;;5113021;28;20026;-73
2021/10/07 13:00:10;;;;;;;;;;;;;;;;;;5113191;28;19946;-72
2021/10/07 13:02:37;;;;;;;;;;;;;;;;;;5113041;28;19927;-72
2021/10/07 13:05:03;;;;;;;;;;;;;;;;;;5112898;28;19923;-72
2021/10/07 13:07:29;;;;;;;;;;;;;;;;;;5113348;28;19924;-73
2021/10/07 13:09:56;;;;;;;;;;;;;;;;;;5113087;28;19927;-72
2021/10/07 13:12:22;;;;;;;;;;;;;;;;;;5113049;28;19923;-72
2021/10/07 13:14:49;;;;;;;;;;;;;;;;;;5112794;28;19924;-73
2021/10/07 13:17:15;;;;;;;;;;;;;;;;;;5113010;28;20109;-74
2021/10/07 13:19:41;;;;;;;;;;;;;;;;;;5112988;28;19931;-72
2021/10/07 13:22:07;;;;;;;;;;;;;;;;;;5112603;28;19924;-72
2021/10/07 13:24:34;;;;;;;;;;;;;;;;;;5113007;28;19923;-72
2021/10/07 13:27:08;;;;;;;;;;;;;;;;;;5112534;28;19931;-72
2021/10/07 13:29:34;;;;;;;;;;;;;;;;;;5114497;28;19930;-72
2021/10/07 13:32:01;;;;;;;;;;;;;;;;;;5112800;28;20020;-73
2021/10/07 13:34:27;;;;;;;;;;;;;;;;;;5112630;28;19931;-73
2021/10/07 13:36:53;;;;;;;;;;;;;;;;;;5112505;28;19938;-73
2021/10/07 13:39:20;;;;;;;;;;;;;;;;;;5112820;28;19924;-73
2021/10/07 13:41:46;;;;;;;;;;;;;;;;;;5117865;28;19935;-72
2021/10/07 13:44:12;;;;;;;;;;;;;;;;;;5116534;28;19931;-72
2021/10/07 13:46:39;;;;;;;;;;;;;;;;;;5112716;28;19930;-73
2021/10/07 13:49:05;;;;;;;;;;;;;;;;;;5112802;28;19952;-73
2021/10/07 13:51:31;;;;;;;;;;;;;;;;;;5112822;28;19946;-73
2021/10/07 13:53:58;;;;;;;;;;;;;;;;;;5112438;28;19935;-73
2021/10/07 13:56:25;;;;;;;;;;;;;;;;;;5112418;28;19924;-73
2021/10/07 13:58:51;;;;;;;;;;;;;;;;;;5112654;28;20173;-73
2021/10/07 14:01:17;;;;;;;;;;;;;;;;;;5133788;28;19995;-75
2021/10/07 14:03:44;;;;;;;;;;;;;;;;;;5139972;28;19924;-73
2021/10/07 14:06:10;;;;;;;;;;;;;;;;;;5132434;28;20373;-73
2021/10/07 14:08:36;;;;;;;;;;;;;;;;;;5117112;28;19934;-73
2021/10/07 14:11:07;;;;;;;;;;;;;;;;;;5116432;28;19923;-73
2021/10/07 14:13:33;;;;;;;;;;;;;;;;;;5116519;28;20010;-73
2021/10/07 14:15:59;;;;;;;;;;;;;;;;;;5116308;28;20301;-73
2021/10/07 14:18:26;;;;;;;;;;;;;;;;;;5116083;28;19931;-73
2021/10/07 14:20:52;;;;;;;;;;;;;;;;;;5116201;28;19924;-72
2021/10/07 14:23:18;;;;;;;;;;;;;;;;;;5115655;28;20389;-73
2021/10/07 14:25:44;;;;;;;;;;;;;;;;;;5116319;28;19923;-73
2021/10/07 14:28:11;;;;;;;;;;;;;;;;;;5115800;28;20298;-73
2021/10/07 14:30:37;;;;;;;;;;;;;;;;;;5115988;28;19939;-73
2021/10/07 14:33:03;;;;;;;;;;;;;;;;;;5115955;28;19923;-73
2021/10/07 14:35:30;;;;;;;;;;;;;;;;;;5115919;28;19931;-73
2021/10/07 14:37:56;;;;;;;;;;;;;;;;;;5115846;28;19924;-73
2021/10/07 14:40:24;;;;;;;;;;;;;;;;;;5115732;28;20370;-73
2021/10/07 14:42:50;;;;;;;;;;;;;;;;;;5115476;28;19924;-72
2021/10/07 14:45:16;;;;;;;;;;;;;;;;;;5115613;28;19970;-72
2021/10/07 14:47:43;;;;;;;;;;;;;;;;;;5115765;28;20030;-73
2021/10/07 14:50:09;;;;;;;;;;;;;;;;;;5115406;28;19930;-74
2021/10/07 14:52:36;;;;;;;;;;;;;;;;;;5115392;28;19924;-73
2021/10/07 14:55:02;;;;;;;;;;;;;;;;;;5114799;28;20274;-74
2021/10/07 14:57:29;;;;;;;;;;;;;;;;;;5115274;28;19924;-72
2021/10/07 14:59:56;;;;;;;;;;;;;;;;;;5115095;28;19924;-72
2021/10/07 15:02:22;;;;;;;;;;;;;;;;;;5115178;28;20279;-72
2021/10/07 15:04:49;;;;;;;;;;;;;;;;;;5115048;28;19931;-72
2021/10/07 15:07:15;;;;;;;;;;;;;;;;;;5115138;28;19955;-72
2021/10/07 15:09:41;;;;;;;;;;;;;;;;;;5115143;28;20386;-72
2021/10/07 15:12:08;;;;;;;;;;;;;;;;;;5114166;28;19934;-72
2021/10/07 15:14:34;;;;;;;;;;;;;;;;;;5115285;28;19924;-72
2021/10/07 15:17:00;;;;;;;;;;;;;;;;;;5114934;28;19930;-73
2021/10/07 15:19:27;;;;;;;;;;;;;;;;;;5114845;28;20400;-74
2021/10/07 15:21:53;;;;;;;;;;;;;;;;;;5114827;28;19924;-72
2021/10/07 15:24:19;;;;;;;;;;;;;;;;;;5114878;28;19924;-74
2021/10/07 15:26:45;;;;;;;;;;;;;;;;;;5114663;28;20286;-71
2021/10/07 15:29:12;;;;;;;;;;;;;;;;;;5114883;28;19930;-73
2021/10/07 15:31:38;;;;;;;;;;;;;;;;;;5114877;28;19950;-71
2021/10/07 15:34:06;;;;;;;;;;;;;;;;;;5114393;28;20382;-71
2021/10/07 15:36:32;;;;;;;;;;;;;;;;;;5114669;28;19924;-72
2021/10/07 15:38:59;;;;;;;;;;;;;;;;;;5114221;28;19923;-72
2021/10/07 15:41:25;;;;;;;;;;;;;;;;;;5114474;28;20378;-72
2021/10/07 15:43:51;;;;;;;;;;;;;;;;;;5114245;28;19923;-72
2021/10/07 15:46:17;;;;;;;;;;;;;;;;;;5114450;28;19927;-72
2021/10/07 15:48:45;;;;;;;;;;;;;;;;;;5114285;28;19930;-72
2021/10/07 15:51:11;;;;;;;;;;;;;;;;;;5113971;28;19924;-72
2021/10/07 15:53:37;;;;;;;;;;;;;;;;;;5114149;28;19927;-71
2021/10/07 15:56:04;;;;;;;;;;;;;;;;;;5113828;28;19923;-71
2021/10/07 15:58:30;;;;;;;;;;;;;;;;;;5113963;28;19924;-72
2021/10/07 16:00:57;;;;;;;;;;;;;;;;;;5114106;28;19924;-72
2021/10/07 16:03:23;;;;;;;;;;;;;;;;;;5114328;28;19949;-72
2021/10/07 16:05:56;;;;;;;;;;;;;;;;;;5113874;28;19923;-72
2021/10/07 16:08:24;;;;;;;;;;;;;;;;;;5114200;28;19924;-71
2021/10/07 16:10:51;;;;;;;;;;;;;;;;;;5114154;28;19924;-71
2021/10/07 16:13:17;;;;;;;;;;;;;;;;;;5112468;28;19924;-71
2021/10/07 16:15:43;;;;;;;;;;;;;;;;;;5113868;28;19923;-72
2021/10/07 16:20:54;;;;;;;;;;;;;;;;;;5113630;28;19995;-72
2021/10/07 16:23:21;;;;;;;;;;;;;;;;;;5113186;28;19966;-72
2021/10/07 16:25:50;;;;;;;;;;;;;;;;;;5113230;28;19931;-72
2021/10/07 16:28:16;;;;;;;;;;;;;;;;;;5113250;28;19924;-72
2021/10/07 16:30:42;;;;;;;;;;;;;;;;;;5113382;28;20030;-72
2021/10/07 16:33:09;;;;;;;;;;;;;;;;;;5112940;28;19927;-72
2021/10/07 16:35:35;;;;;;;;;;;;;;;;;;5113720;28;19930;-72
2021/10/07 16:38:01;;;;;;;;;;;;;;;;;;5113463;28;19924;-72
2021/10/07 16:40:28;;;;;;;;;;;;;;;;;;5113685;28;20057;-72
2021/10/07 16:42:54;;;;;;;;;;;;;;;;;;5112821;28;20011;-73
2021/10/07 16:45:21;;;;;;;;;;;;;;;;;;5113665;28;19924;-73